Time;durP1;ratioP1;P1;durP2;ratioP2;P2;SDS_P1;SDS_P2;PMS_P1;PMS_P2;Temp;Humidity;BMP_temperature;BMP_pressure;BME280_temperature;BME280_humidity;BME280_pressure;Samples;Min_cycle;Max_cycle;Signal;HPM_P1;HPM_P2
2023/05/28 00:00:38;;;;;;;8.40;6.60;;;14.40;1.00;;;;;;4968333;28;21040;-73
2023/05/28 00:03:04;;;;;;;7.90;6.63;;;14.30;1.00;;;;;;4973013;28;20502;-75
2023/05/28 00:05:31;;;;;;;13.40;6.70;;;14.30;1.00;;;;;;4964852;28;21467;-75
2023/05/28 00:08:00;;;;;;;8.60;7.80;;;14.30;1.00;;;;;;4969787;28;20475;-73
2023/05/28 00:10:27;;;;;;;7.87;6.73;;;14.30;1.00;;;;;;4971095;28;20451;-73
2023/05/28 00:12:54;;;;;;;7.77;7.07;;;14.20;1.00;;;;;;4978433;28;21079;-77
2023/05/28 00:15:21;;;;;;;8.93;7.53;;;14.20;1.00;;;;;;4971678;28;20946;-74
2023/05/28 00:17:52;;;;;;;8.60;7.77;;;14.10;1.00;;;;;;4966533;28;20490;-75
2023/05/28 00:20:19;;;;;;;8.50;6.70;;;14.10;1.00;;;;;;4966998;28;21038;-74
2023/05/28 00:22:46;;;;;;;8.53;7.53;;;14.10;1.00;;;;;;4965948;28;20968;-74
2023/05/28 00:25:13;;;;;;;9.97;6.00;;;14.00;1.00;;;;;;4969126;28;20463;-74
2023/05/28 00:27:40;;;;;;;10.63;7.17;;;14.00;1.00;;;;;;4968182;28;20495;-74
2023/05/28 00:30:08;;;;;;;8.60;7.33;;;14.00;1.00;;;;;;4964715;28;20541;-74
2023/05/28 00:32:35;;;;;;;7.90;7.03;;;13.90;1.00;;;;;;4961986;28;20481;-74
2023/05/28 00:35:03;;;;;;;10.30;7.70;;;13.90;1.00;;;;;;4964494;28;20466;-73
2023/05/28 00:37:30;;;;;;;7.67;6.97;;;13.90;1.00;;;;;;4969210;28;20608;-73
2023/05/28 00:39:57;;;;;;;10.87;7.60;;;13.90;1.00;;;;;;4968062;28;20561;-75
2023/05/28 00:42:24;;;;;;;12.40;8.63;;;13.80;1.00;;;;;;4969090;28;20462;-74
2023/05/28 00:44:51;;;;;;;7.93;7.23;;;13.80;1.00;;;;;;4968059;28;20850;-75
2023/05/28 00:47:18;;;;;;;8.00;6.50;;;13.80;1.00;;;;;;4973997;28;20484;-75
2023/05/28 00:49:48;;;;;;;7.87;7.10;;;13.70;1.00;;;;;;4964968;28;20613;-75
2023/05/28 00:52:17;;;;;;;21.73;19.53;;;13.70;1.00;;;;;;4965344;28;20558;-74
2023/05/28 00:54:44;;;;;;;8.90;7.83;;;13.60;1.00;;;;;;4965834;28;21201;-74
2023/05/28 00:57:12;;;;;;;8.83;7.77;;;13.60;1.00;;;;;;4963991;28;20517;-74
2023/05/28 00:59:39;;;;;;;9.50;7.03;;;13.60;1.00;;;;;;4961271;28;20452;-74
2023/05/28 01:02:06;;;;;;;9.10;8.20;;;13.50;1.00;;;;;;4968495;28;20620;-74
2023/05/28 01:04:34;;;;;;;7.77;6.97;;;13.50;1.00;;;;;;4963973;28;20980;-73
2023/05/28 01:07:02;;;;;;;10.83;8.00;;;13.50;1.00;;;;;;4968999;28;20476;-74
2023/05/28 01:09:30;;;;;;;9.37;7.33;;;13.50;1.00;;;;;;4967577;28;21256;-74
2023/05/28 01:11:58;;;;;;;10.27;7.63;;;13.40;1.00;;;;;;4966656;28;20465;-74
2023/05/28 01:14:25;;;;;;;7.93;7.23;;;13.40;1.00;;;;;;4968577;28;20968;-73
2023/05/28 01:16:52;;;;;;;9.40;7.60;;;13.40;1.00;;;;;;4964168;28;20479;-75
2023/05/28 01:19:26;;;;;;;8.43;7.63;;;13.30;1.00;;;;;;4970250;28;20474;-73
2023/05/28 01:22:01;;;;;;;9.40;8.50;;;13.30;1.00;;;;;;4969372;28;20470;-73
2023/05/28 01:24:30;;;;;;;9.67;8.10;;;13.20;1.00;;;;;;4969152;28;20466;-73
2023/05/28 01:26:57;;;;;;;8.80;7.67;;;13.20;1.00;;;;;;4968419;28;20479;-73
2023/05/28 01:29:24;;;;;;;11.23;7.80;;;13.10;1.00;;;;;;4968881;28;20500;-73
2023/05/28 01:31:51;;;;;;;8.40;7.47;;;13.00;1.00;;;;;;4966852;28;21056;-73
2023/05/28 01:34:18;;;;;;;8.77;7.17;;;13.00;1.00;;;;;;4967475;28;20465;-73
2023/05/28 01:36:49;;;;;;;11.23;7.77;;;12.90;1.00;;;;;;4962868;28;21764;-74
2023/05/28 01:39:19;;;;;;;10.83;8.17;;;12.90;1.00;;;;;;4967659;28;20552;-73
2023/05/28 01:41:48;;;;;;;8.57;7.00;;;12.80;1.00;;;;;;4968280;28;20478;-74
2023/05/28 01:44:20;;;;;;;8.27;7.47;;;12.80;1.00;;;;;;4945364;28;20448;-74
2023/05/28 01:46:49;;;;;;;8.40;7.50;;;12.80;1.00;;;;;;4962797;28;20590;-75
2023/05/28 01:49:16;;;;;;;10.23;6.90;;;12.80;1.00;;;;;;4968355;28;20878;-74
2023/05/28 01:51:44;;;;;;;7.77;6.90;;;12.80;1.00;;;;;;4963145;28;20611;-75
2023/05/28 01:54:11;;;;;;;10.27;7.33;;;12.90;1.00;;;;;;4970315;28;20592;-75
2023/05/28 01:56:38;;;;;;;10.77;8.30;;;12.90;1.00;;;;;;4968782;28;20496;-75
2023/05/28 01:59:06;;;;;;;11.27;7.93;;;12.80;1.00;;;;;;4968149;28;20457;-75
2023/05/28 02:01:35;;;;;;;9.83;8.03;;;12.80;1.00;;;;;;4970850;28;20524;-75
2023/05/28 02:04:02;;;;;;;9.40;7.77;;;12.80;1.00;;;;;;4964424;28;20495;-73
2023/05/28 02:06:35;;;;;;;9.40;7.73;;;12.70;1.00;;;;;;4966601;28;20497;-75
2023/05/28 02:09:02;;;;;;;8.90;7.13;;;12.70;1.00;;;;;;4970343;28;20497;-75
2023/05/28 02:11:29;;;;;;;8.77;7.87;;;12.60;1.00;;;;;;4970795;28;20469;-75
2023/05/28 02:13:56;;;;;;;8.53;7.10;;;12.60;1.00;;;;;;4966345;28;20560;-75
2023/05/28 02:16:25;;;;;;;11.40;7.47;;;12.60;1.00;;;;;;4959904;28;20481;-75
2023/05/28 02:18:53;;;;;;;8.23;6.60;;;12.60;1.00;;;;;;4965213;28;20573;-74
2023/05/28 02:21:20;;;;;;;6.97;6.30;;;12.60;1.00;;;;;;4963296;28;20522;-75
2023/05/28 02:23:48;;;;;;;10.80;7.60;;;12.50;1.00;;;;;;4969596;28;20509;-74
2023/05/28 02:26:16;;;;;;;8.40;7.50;;;12.50;1.00;;;;;;4967511;28;20481;-73
2023/05/28 02:28:44;;;;;;;8.80;7.90;;;12.40;1.00;;;;;;4971938;28;20465;-73
2023/05/28 02:31:11;;;;;;;9.57;7.23;;;12.40;1.00;;;;;;4969466;28;21339;-73
2023/05/28 02:33:41;;;;;;;10.60;7.77;;;12.30;1.00;;;;;;4963113;28;20487;-74
2023/05/28 02:36:11;;;;;;;9.97;7.47;;;12.30;1.00;;;;;;4938362;28;20943;-74
2023/05/28 02:38:38;;;;;;;10.07;7.27;;;12.30;1.00;;;;;;4964229;28;20882;-74
2023/05/28 02:41:05;;;;;;;7.50;6.80;;;12.20;1.00;;;;;;4965316;28;21374;-74
2023/05/28 02:43:32;;;;;;;7.57;6.60;;;12.20;1.00;;;;;;4969765;28;20553;-74
2023/05/28 02:45:59;;;;;;;7.80;7.10;;;12.10;1.00;;;;;;4967078;28;21301;-74
2023/05/28 02:48:26;;;;;;;11.50;8.23;;;12.10;1.00;;;;;;4969525;28;20484;-74
2023/05/28 02:50:55;;;;;;;13.03;7.37;;;12.10;1.00;;;;;;4968399;28;20515;-74
2023/05/28 02:53:23;;;;;;;8.97;7.30;;;12.10;1.00;;;;;;4965971;28;20465;-74
2023/05/28 02:55:50;;;;;;;9.50;7.00;;;12.00;1.00;;;;;;4965804;28;20563;-74
2023/05/28 02:58:18;;;;;;;9.43;8.20;;;12.00;1.00;;;;;;4959593;28;20638;-74
2023/05/28 03:00:45;;;;;;;10.70;7.63;;;12.00;1.00;;;;;;4966120;28;20464;-74
2023/05/28 03:03:12;;;;;;;11.60;7.87;;;11.90;1.00;;;;;;4962152;28;20517;-76
2023/05/28 03:05:41;;;;;;;12.87;7.77;;;11.90;1.00;;;;;;4965533;28;20559;-74
2023/05/28 03:08:10;;;;;;;10.90;8.20;;;11.90;1.00;;;;;;4965472;28;20448;-74
2023/05/28 03:10:37;;;;;;;8.17;7.20;;;11.90;1.00;;;;;;4967409;28;21011;-74
2023/05/28 03:13:04;;;;;;;8.27;7.30;;;11.80;1.00;;;;;;4967544;28;20954;-74
2023/05/28 03:15:31;;;;;;;9.43;7.43;;;11.80;1.00;;;;;;4968925;28;20561;-74
2023/05/28 03:17:58;;;;;;;9.87;7.33;;;11.80;1.00;;;;;;4967276;28;20543;-74
2023/05/28 03:20:25;;;;;;;8.87;7.97;;;11.80;1.00;;;;;;4966163;28;20962;-73
2023/05/28 03:22:56;;;;;;;12.00;8.17;;;11.70;1.00;;;;;;4965465;28;20489;-73
2023/05/28 03:25:26;;;;;;;9.87;7.70;;;11.70;1.00;;;;;;4965057;28;20571;-73
2023/05/28 03:27:53;;;;;;;7.60;6.40;;;11.70;1.00;;;;;;4964189;28;20480;-74
2023/05/28 03:30:21;;;;;;;10.40;7.20;;;11.70;1.00;;;;;;4967325;28;20430;-74
2023/05/28 03:32:48;;;;;;;9.10;7.30;;;11.70;1.00;;;;;;4966033;28;20555;-73
2023/05/28 03:35:15;;;;;;;12.23;8.00;;;11.70;1.00;;;;;;4962531;28;20559;-73
2023/05/28 03:37:42;;;;;;;8.60;6.87;;;11.70;1.00;;;;;;4963307;28;20456;-74
2023/05/28 03:40:10;;;;;;;8.87;6.40;;;11.70;1.00;;;;;;4959599;28;20571;-73
2023/05/28 03:42:40;;;;;;;9.60;7.30;;;11.80;1.00;;;;;;4964499;28;20485;-73
2023/05/28 03:45:08;;;;;;;7.10;6.43;;;11.90;1.00;;;;;;4965782;28;20460;-73
2023/05/28 03:47:35;;;;;;;9.40;6.90;;;11.90;1.00;;;;;;4963759;28;21275;-73
2023/05/28 03:50:04;;;;;;;8.50;7.07;;;11.90;1.00;;;;;;4966961;28;20544;-75
2023/05/28 03:52:31;;;;;;;8.13;6.83;;;12.00;1.00;;;;;;4968643;28;20836;-75
2023/05/28 03:54:58;;;;;;;7.80;6.57;;;12.00;1.00;;;;;;4966432;28;20496;-75
2023/05/28 03:57:25;;;;;;;10.33;6.90;;;12.00;1.00;;;;;;4965549;28;20448;-74
2023/05/28 03:59:55;;;;;;;9.13;6.70;;;12.10;1.00;;;;;;4963664;28;20503;-74
2023/05/28 04:02:23;;;;;;;11.60;6.40;;;12.10;1.00;;;;;;4967863;28;20464;-74
2023/05/28 04:04:50;;;;;;;7.00;6.20;;;12.10;1.00;;;;;;4962389;28;20480;-74
2023/05/28 04:07:16;;;;;;;7.20;6.60;;;12.10;1.00;;;;;;4957674;28;20483;-74
2023/05/28 04:09:44;;;;;;;7.90;6.73;;;12.20;1.00;;;;;;4966065;28;20460;-74
2023/05/28 04:12:12;;;;;;;7.60;6.43;;;12.20;1.00;;;;;;4965936;28;20456;-74
2023/05/28 04:14:40;;;;;;;9.03;6.63;;;12.30;1.00;;;;;;4964857;28;20476;-74
2023/05/28 04:17:10;;;;;;;11.57;6.93;;;12.30;1.00;;;;;;4963770;28;20467;-73
2023/05/28 04:19:38;;;;;;;8.13;7.30;;;12.30;1.00;;;;;;4965857;28;20540;-76
2023/05/28 04:22:05;;;;;;;9.70;6.83;;;12.30;1.00;;;;;;4961493;28;20460;-74
2023/05/28 04:24:32;;;;;;;10.10;6.60;;;12.30;1.00;;;;;;4969843;28;20484;-73
2023/05/28 04:26:59;;;;;;;9.27;6.80;;;12.40;1.00;;;;;;4966142;28;20564;-72
2023/05/28 04:29:29;;;;;;;8.93;6.60;;;12.40;1.00;;;;;;4965568;28;20468;-74
2023/05/28 04:31:57;;;;;;;7.00;6.20;;;12.50;1.00;;;;;;4964513;28;20457;-73
2023/05/28 04:34:26;;;;;;;6.63;6.00;;;12.50;1.00;;;;;;4960863;28;20595;-73
2023/05/28 04:36:53;;;;;;;9.00;6.90;;;12.60;1.00;;;;;;4965156;28;20528;-74
2023/05/28 04:39:20;;;;;;;9.70;6.37;;;12.60;1.00;;;;;;4965151;28;20457;-75
2023/05/28 04:41:48;;;;;;;7.63;6.60;;;12.70;1.00;;;;;;4963590;28;20541;-74
2023/05/28 04:44:16;;;;;;;10.83;5.97;;;12.70;1.00;;;;;;4965674;28;20563;-74
2023/05/28 04:46:43;;;;;;;7.43;5.77;;;12.80;1.00;;;;;;4962309;28;20489;-75
2023/05/28 04:49:11;;;;;;;8.87;6.90;;;12.90;1.00;;;;;;4968868;28;20490;-74
2023/05/28 04:51:40;;;;;;;11.53;7.70;;;13.00;1.00;;;;;;4965109;28;20476;-74
2023/05/28 04:54:07;;;;;;;9.70;5.70;;;13.00;1.00;;;;;;4964715;28;20477;-74
2023/05/28 04:56:34;;;;;;;8.33;6.90;;;13.10;1.00;;;;;;4968002;28;20572;-75
2023/05/28 04:59:04;;;;;;;8.50;5.90;;;13.20;1.00;;;;;;4969935;28;20478;-75
2023/05/28 05:01:32;;;;;;;8.50;6.33;;;13.30;1.00;;;;;;4967936;28;20629;-75
2023/05/28 05:03:59;;;;;;;8.80;6.17;;;13.40;1.00;;;;;;4967907;28;20900;-74
2023/05/28 05:06:26;;;;;;;8.20;6.10;;;13.50;1.00;;;;;;4965663;28;20465;-73
2023/05/28 05:08:54;;;;;;;13.33;6.57;;;13.60;1.00;;;;;;4967749;28;20468;-75
2023/05/28 05:11:21;;;;;;;8.97;5.60;;;13.60;1.00;;;;;;4958654;28;20558;-74
2023/05/28 05:13:48;;;;;;;6.80;5.40;;;13.70;1.00;;;;;;4965468;28;20474;-75
2023/05/28 05:16:16;;;;;;;7.67;5.47;;;13.70;1.00;;;;;;4968245;28;20513;-73
2023/05/28 05:18:43;;;;;;;9.17;6.20;;;13.80;1.00;;;;;;4968627;28;20477;-73
2023/05/28 05:21:12;;;;;;;7.80;6.10;;;13.80;1.00;;;;;;4967621;28;21257;-74
2023/05/28 05:23:42;;;;;;;6.90;5.10;;;13.90;1.00;;;;;;4969385;28;20553;-74
2023/05/28 05:26:12;;;;;;;6.23;5.50;;;14.00;1.00;;;;;;4967030;28;20462;-74
2023/05/28 05:28:39;;;;;;;10.67;6.33;;;14.10;1.00;;;;;;4961840;28;20486;-74
2023/05/28 05:31:06;;;;;;;7.90;5.50;;;14.30;1.00;;;;;;4962768;28;20517;-74
2023/05/28 05:33:33;;;;;;;7.43;5.83;;;14.30;1.00;;;;;;4961848;28;20483;-74
2023/05/28 05:36:00;;;;;;;7.10;5.57;;;14.50;1.00;;;;;;4964333;28;20539;-75
2023/05/28 05:38:27;;;;;;;5.80;5.17;;;14.70;1.00;;;;;;4968082;28;20561;-74
2023/05/28 05:40:54;;;;;;;7.50;5.90;;;14.90;1.00;;;;;;4962616;28;20905;-74
2023/05/28 05:43:23;;;;;;;8.17;5.60;;;15.00;1.00;;;;;;4964764;28;20483;-75
2023/05/28 05:45:49;;;;;;;10.20;5.97;;;15.10;1.00;;;;;;4963324;28;21042;-74
2023/05/28 05:48:16;;;;;;;13.40;5.93;;;15.20;1.00;;;;;;4964351;28;20467;-75
2023/05/28 05:50:50;;;;;;;8.97;6.00;;;15.40;1.00;;;;;;4965080;28;20463;-72
2023/05/28 05:53:17;;;;;;;5.83;5.07;;;15.60;1.00;;;;;;4962733;28;20936;-73
2023/05/28 05:55:45;;;;;;;6.70;5.23;;;15.70;1.00;;;;;;4957447;28;20465;-73
2023/05/28 05:58:12;;;;;;;6.00;5.40;;;15.90;1.00;;;;;;4959671;28;20536;-74
2023/05/28 06:00:40;;;;;;;6.40;5.23;;;16.10;1.00;;;;;;4950916;28;20479;-74
2023/05/28 06:03:07;;;;;;;5.90;5.10;;;16.30;1.00;;;;;;4956970;28;20501;-74
2023/05/28 06:05:34;;;;;;;5.27;4.47;;;16.30;1.00;;;;;;4962767;28;20471;-73
2023/05/28 06:08:02;;;;;;;14.47;6.73;;;16.50;1.00;;;;;;4965827;28;20563;-74
2023/05/28 06:10:29;;;;;;;6.90;4.90;;;16.50;1.00;;;;;;4962592;28;20456;-74
2023/05/28 06:12:56;;;;;;;7.27;5.10;;;16.60;1.00;;;;;;4961178;28;20492;-74
2023/05/28 06:15:24;;;;;;;7.30;5.40;;;16.80;1.00;;;;;;4951179;28;20468;-74
2023/05/28 06:17:53;;;;;;;6.70;4.70;;;16.90;1.00;;;;;;4965905;28;20658;-73
2023/05/28 06:20:20;;;;;;;4.73;4.20;;;16.90;1.00;;;;;;4952251;28;20543;-73
2023/05/28 06:22:47;;;;;;;10.33;5.20;;;17.10;1.00;;;;;;4960261;28;20558;-75
2023/05/28 06:25:15;;;;;;;7.40;4.60;;;17.10;1.00;;;;;;4964768;28;20464;-74
2023/05/28 06:27:42;;;;;;;6.37;4.27;;;17.20;1.00;;;;;;4965895;28;20486;-75
2023/05/28 06:30:10;;;;;;;7.43;5.13;;;17.30;1.00;;;;;;4970923;28;20488;-74
2023/05/28 06:32:37;;;;;;;7.53;5.43;;;17.30;1.00;;;;;;4965665;28;20611;-74
2023/05/28 06:35:06;;;;;;;5.97;5.00;;;17.50;1.00;;;;;;4969786;28;21180;-72
2023/05/28 06:37:33;;;;;;;5.80;5.10;;;17.50;1.00;;;;;;4963669;28;20548;-74
2023/05/28 06:40:00;;;;;;;5.00;4.20;;;17.50;1.00;;;;;;4967980;28;20485;-73
2023/05/28 06:42:27;;;;;;;6.27;4.63;;;17.70;1.00;;;;;;4966768;28;20480;-74
2023/05/28 06:44:54;;;;;;;5.13;4.63;;;17.80;1.00;;;;;;4964295;28;20500;-74
2023/05/28 06:47:20;;;;;;;5.40;4.23;;;17.90;1.00;;;;;;4966575;28;20457;-73
2023/05/28 06:49:47;;;;;;;4.83;4.33;;;18.00;1.00;;;;;;4965407;28;20538;-74
2023/05/28 06:52:16;;;;;;;4.67;4.27;;;18.00;1.00;;;;;;4965124;28;20584;-74
2023/05/28 06:54:43;;;;;;;4.77;3.90;;;18.10;1.00;;;;;;4965091;28;20536;-75
2023/05/28 06:57:10;;;;;;;4.93;4.53;;;18.30;1.00;;;;;;4959537;28;20545;-73
2023/05/28 06:59:37;;;;;;;3.97;3.40;;;18.40;1.00;;;;;;4967878;28;20882;-75
2023/05/28 07:02:05;;;;;;;5.83;4.30;;;18.50;1.00;;;;;;4963862;28;20559;-74
2023/05/28 07:04:32;;;;;;;4.80;3.90;;;18.40;1.00;;;;;;4961405;28;20894;-73
2023/05/28 07:06:59;;;;;;;4.10;3.40;;;18.40;1.00;;;;;;4955800;28;20524;-74
2023/05/28 07:09:27;;;;;;;7.40;3.80;;;18.40;1.00;;;;;;4963635;28;21007;-74
2023/05/28 07:11:54;;;;;;;5.53;4.13;;;18.60;1.00;;;;;;4963697;28;20493;-74
2023/05/28 07:14:21;;;;;;;6.63;3.73;;;18.50;1.00;;;;;;4966037;28;20979;-74
2023/05/28 07:16:48;;;;;;;4.90;3.60;;;18.60;1.00;;;;;;4962998;28;20901;-74
2023/05/28 07:19:15;;;;;;;5.13;3.63;;;18.70;1.00;;;;;;4967117;28;20869;-74
2023/05/28 07:21:43;;;;;;;3.47;3.17;;;18.70;1.00;;;;;;4965360;28;20561;-75
2023/05/28 07:24:10;;;;;;;4.70;3.53;;;18.80;1.00;;;;;;4959302;28;20454;-75
2023/05/28 07:26:38;;;;;;;4.17;3.30;;;19.00;1.00;;;;;;4965325;28;20511;-75
2023/05/28 07:29:05;;;;;;;5.50;3.73;;;19.20;1.00;;;;;;4960412;28;20471;-73
2023/05/28 07:31:32;;;;;;;3.90;3.50;;;19.10;1.00;;;;;;4963480;28;20492;-74
2023/05/28 07:33:59;;;;;;;3.03;2.73;;;19.10;1.00;;;;;;4962192;28;20567;-74
2023/05/28 07:36:26;;;;;;;5.63;3.83;;;19.20;1.00;;;;;;4962290;28;20649;-74
2023/05/28 07:38:53;;;;;;;6.57;3.67;;;19.30;1.00;;;;;;4965263;28;20474;-74
2023/05/28 07:41:21;;;;;;;4.63;3.00;;;19.40;1.00;;;;;;4965261;28;20471;-75
2023/05/28 07:43:49;;;;;;;6.33;3.50;;;19.60;1.00;;;;;;4964877;28;20490;-74
2023/05/28 07:46:17;;;;;;;3.93;2.70;;;19.80;1.00;;;;;;4963279;28;20488;-75
2023/05/28 07:48:45;;;;;;;9.13;3.80;;;20.10;1.00;;;;;;4970511;28;20462;-75
2023/05/28 07:51:12;;;;;;;5.13;3.00;;;20.20;1.00;;;;;;4969135;28;20547;-74
2023/05/28 07:53:39;;;;;;;6.40;3.00;;;20.40;1.00;;;;;;4962078;28;20562;-73
2023/05/28 07:56:07;;;;;;;4.40;3.37;;;20.60;1.00;;;;;;4963766;28;21021;-74
2023/05/28 07:58:34;;;;;;;4.50;2.87;;;20.80;1.00;;;;;;4965302;28;20524;-75
2023/05/28 08:01:02;;;;;;;3.07;2.50;;;20.90;1.00;;;;;;4962434;28;20483;-75
2023/05/28 08:03:29;;;;;;;4.67;2.90;;;20.90;1.00;;;;;;4959140;28;20480;-76
2023/05/28 08:05:56;;;;;;;4.07;3.00;;;20.90;1.00;;;;;;4959454;28;20607;-76
2023/05/28 08:08:22;;;;;;;4.37;3.47;;;21.00;1.00;;;;;;4964025;28;20794;-75
2023/05/28 08:10:50;;;;;;;3.60;3.17;;;21.20;1.00;;;;;;4964388;28;20482;-75
2023/05/28 08:13:17;;;;;;;4.73;3.57;;;21.40;1.00;;;;;;4962618;28;20466;-75
2023/05/28 08:15:44;;;;;;;3.07;2.77;;;21.50;1.00;;;;;;4964804;28;20473;-75
2023/05/28 08:18:13;;;;;;;4.10;3.17;;;21.60;1.00;;;;;;4963655;28;20548;-75
2023/05/28 08:20:40;;;;;;;11.00;3.33;;;21.70;1.00;;;;;;4962234;28;20523;-74
2023/05/28 08:23:07;;;;;;;3.23;2.47;;;21.60;1.00;;;;;;4962856;28;20469;-74
2023/05/28 08:25:34;;;;;;;4.07;2.67;;;21.30;1.00;;;;;;4976565;28;20519;-75
2023/05/28 08:28:02;;;;;;;4.97;3.83;;;21.20;1.00;;;;;;4971089;28;20578;-74
2023/05/28 08:30:29;;;;;;;5.43;2.97;;;21.10;1.00;;;;;;4972544;28;20477;-74
2023/05/28 08:32:56;;;;;;;2.80;2.50;;;21.30;1.00;;;;;;4970558;28;20468;-73
2023/05/28 08:35:25;;;;;;;3.13;2.80;;;21.50;1.00;;;;;;4972648;28;20466;-74
2023/05/28 08:37:52;;;;;;;4.03;2.93;;;21.50;1.00;;;;;;4967125;28;20593;-74
2023/05/28 08:40:19;;;;;;;5.40;2.90;;;21.40;1.00;;;;;;4959457;28;20562;-73
2023/05/28 08:42:46;;;;;;;4.70;3.30;;;21.50;1.00;;;;;;4967158;28;20475;-74
2023/05/28 08:45:13;;;;;;;4.40;2.73;;;21.70;1.00;;;;;;4970956;28;20601;-74
2023/05/28 08:47:41;;;;;;;4.80;3.13;;;21.80;1.00;;;;;;4970501;28;20501;-74
2023/05/28 08:50:08;;;;;;;3.07;2.57;;;21.70;1.00;;;;;;4971104;28;20538;-73
2023/05/28 08:52:38;;;;;;;3.70;3.30;;;21.90;1.00;;;;;;4973113;28;20463;-72
2023/05/28 08:55:06;;;;;;;3.67;2.87;;;22.00;1.00;;;;;;4972778;28;20901;-74
2023/05/28 08:57:33;;;;;;;3.40;2.80;;;22.30;1.00;;;;;;4971255;28;20922;-74
2023/05/28 09:00:01;;;;;;;4.80;3.20;;;22.20;1.00;;;;;;4965332;28;20570;-74
2023/05/28 09:02:28;;;;;;;4.97;2.50;;;22.20;1.00;;;;;;4966972;28;20549;-74
2023/05/28 09:04:57;;;;;;;7.67;6.17;;;22.30;1.00;;;;;;4966470;28;21280;-74
2023/05/28 09:07:25;;;;;;;4.33;3.20;;;22.30;1.00;;;;;;4946675;28;20463;-73
2023/05/28 09:09:56;;;;;;;3.67;3.13;;;22.40;1.00;;;;;;4963127;28;20549;-72
2023/05/28 09:12:23;;;;;;;5.90;3.70;;;22.40;1.00;;;;;;4968509;28;20462;-73
2023/05/28 09:14:52;;;;;;;9.87;3.03;;;22.50;1.00;;;;;;4969263;28;20484;-74
2023/05/28 09:17:33;;;;;;;4.37;2.87;;;22.60;1.00;;;;;;4973399;28;20644;-74
2023/05/28 09:20:10;;;;;;;10.57;9.50;;;22.70;1.00;;;;;;4972774;28;20531;-74
2023/05/28 09:22:37;;;;;;;3.60;2.70;;;22.60;1.00;;;;;;4977416;28;20495;-73
2023/05/28 09:25:08;;;;;;;4.57;3.13;;;22.70;1.00;;;;;;4974093;28;20554;-73
2023/05/28 09:27:36;;;;;;;3.90;2.87;;;22.80;1.00;;;;;;4973160;28;20497;-72
2023/05/28 09:30:05;;;;;;;5.03;3.00;;;23.00;1.00;;;;;;4973080;28;20477;-73
2023/05/28 09:32:33;;;;;;;4.10;3.03;;;23.40;1.00;;;;;;4974721;28;20563;-72
2023/05/28 09:35:00;;;;;;;5.60;2.60;;;24.20;1.00;;;;;;4964143;28;20562;-74
2023/05/28 09:37:29;;;;;;;2.73;2.50;;;25.50;1.00;;;;;;4969158;28;20463;-73
2023/05/28 09:40:01;;;;;;;4.07;3.00;;;26.90;1.00;;;;;;4971437;28;20999;-73
2023/05/28 09:42:34;;;;;;;4.33;3.27;;;28.10;1.00;;;;;;4971354;28;20804;-74
2023/05/28 09:45:01;;;;;;;5.13;3.33;;;28.90;1.00;;;;;;4968621;28;20486;-74
2023/05/28 09:47:28;;;;;;;6.27;3.17;;;29.60;1.00;;;;;;4970757;28;20453;-76
2023/05/28 09:49:55;;;;;;;4.23;3.73;;;30.20;1.00;;;;;;4970207;28;20562;-75
2023/05/28 09:52:23;;;;;;;4.40;3.20;;;31.30;1.00;;;;;;4972990;28;20494;-74
2023/05/28 09:54:52;;;;;;;4.27;3.07;;;32.30;1.00;;;;;;4972307;28;20480;-75
2023/05/28 09:57:24;;;;;;;4.30;2.50;;;32.50;1.00;;;;;;4970196;28;20499;-74
2023/05/28 09:59:55;;;;;;;3.20;2.63;;;32.60;1.00;;;;;;4968848;28;20487;-75
2023/05/28 10:02:28;;;;;;;5.50;3.00;;;32.40;1.00;;;;;;4968289;28;20460;-75
2023/05/28 10:04:57;;;;;;;4.97;3.50;;;31.70;1.00;;;;;;4969067;28;20926;-74
2023/05/28 10:07:28;;;;;;;5.33;2.90;;;31.90;1.00;;;;;;4971573;28;20543;-74
2023/05/28 10:09:56;;;;;;;5.13;2.87;;;32.50;1.00;;;;;;4971622;28;20494;-74
2023/05/28 10:12:29;;;;;;;3.90;2.97;;;33.00;1.00;;;;;;4974594;28;20471;-75
2023/05/28 10:14:58;;;;;;;3.73;2.90;;;33.40;1.00;;;;;;4969329;28;20554;-74
2023/05/28 10:17:26;;;;;;;3.03;2.73;;;33.50;1.00;;;;;;4971141;28;20457;-75
2023/05/28 10:19:52;;;;;;;6.67;3.37;;;33.40;1.00;;;;;;4970651;28;20555;-74
2023/05/28 10:22:20;;;;;;;3.17;2.87;;;33.30;1.00;;;;;;4971513;28;20543;-74
2023/05/28 10:24:48;;;;;;;3.60;2.90;;;32.90;1.00;;;;;;4969928;28;20499;-75
2023/05/28 10:27:16;;;;;;;2.93;2.63;;;32.60;1.00;;;;;;4974291;28;20487;-74
2023/05/28 10:29:44;;;;;;;3.43;2.70;;;33.10;1.00;;;;;;4969984;28;21879;-74
2023/05/28 10:32:15;;;;;;;3.47;2.80;;;33.70;1.00;;;;;;4966221;28;20484;-75
2023/05/28 10:34:42;;;;;;;3.90;3.10;;;33.50;1.00;;;;;;4972887;28;21082;-73
2023/05/28 10:37:13;;;;;;;4.50;3.67;;;33.20;1.00;;;;;;4968630;28;20933;-74
2023/05/28 10:39:45;;;;;;;3.63;3.17;;;33.60;1.00;;;;;;4966505;28;20475;-74
2023/05/28 10:42:16;;;;;;;3.63;3.13;;;34.30;1.00;;;;;;4971485;28;20463;-74
2023/05/28 10:45:09;;;;;;;3.17;2.87;;;34.40;1.00;;;;;;4968078;28;20527;-74
2023/05/28 10:47:39;;;;;;;5.40;3.20;;;33.90;1.00;;;;;;4957623;28;20510;-73
2023/05/28 10:50:13;;;;;;;3.27;2.97;;;34.00;1.00;;;;;;4970099;28;20479;-73
2023/05/28 10:52:41;;;;;;;3.50;3.10;;;34.40;1.00;;;;;;4970590;28;21121;-73
2023/05/28 10:55:09;;;;;;;3.37;3.07;;;34.20;1.00;;;;;;4964625;28;20468;-74
2023/05/28 10:57:45;;;;;;;5.10;3.30;;;35.00;1.00;;;;;;4966600;28;20467;-74
2023/05/28 11:00:14;;;;;;;2.93;2.70;;;35.10;1.00;;;;;;4963408;28;20471;-74
2023/05/28 11:02:44;;;;;;;3.40;3.10;;;34.70;1.00;;;;;;4966793;28;20472;-74
2023/05/28 11:05:12;;;;;;;3.17;2.53;;;35.00;1.00;;;;;;4970113;28;20555;-74
2023/05/28 11:07:40;;;;;;;4.00;3.40;;;35.20;1.00;;;;;;4970621;28;20911;-74
2023/05/28 11:10:09;;;;;;;3.47;3.13;;;34.80;1.00;;;;;;4970987;28;20494;-74
2023/05/28 11:12:38;;;;;;;4.53;2.80;;;34.90;1.00;;;;;;4971403;28;20475;-75
2023/05/28 11:15:06;;;;;;;4.57;3.00;;;34.70;1.00;;;;;;4968601;28;20469;-73
2023/05/28 11:17:38;;;;;;;3.77;2.80;;;34.80;1.00;;;;;;4967799;28;20464;-74
2023/05/28 11:20:16;;;;;;;3.40;3.07;;;35.40;1.00;;;;;;4967498;28;21259;-74
2023/05/28 11:22:43;;;;;;;3.77;3.37;;;36.20;1.00;;;;;;4969829;28;20478;-73
2023/05/28 11:25:12;;;;;;;3.80;3.00;;;36.30;1.00;;;;;;4969172;28;20488;-73
2023/05/28 11:27:40;;;;;;;4.03;3.20;;;36.80;1.00;;;;;;4970475;28;20464;-74
2023/05/28 11:30:12;;;;;;;5.53;3.13;;;37.20;1.00;;;;;;4964467;28;20480;-74
2023/05/28 11:32:42;;;;;;;3.10;2.73;;;37.60;1.00;;;;;;4963971;28;21223;-73
2023/05/28 11:35:13;;;;;;;3.50;2.60;;;38.00;1.00;;;;;;4968606;28;20456;-73
2023/05/28 11:37:42;;;;;;;3.93;2.93;;;38.30;1.00;;;;;;4970559;28;20468;-74
2023/05/28 11:40:10;;;;;;;3.93;3.30;;;38.40;1.00;;;;;;4969163;28;20551;-73
2023/05/28 11:42:38;;;;;;;3.90;2.97;;;38.60;1.00;;;;;;4969885;28;20527;-74
2023/05/28 11:45:06;;;;;;;4.00;3.33;;;38.60;1.00;;;;;;4961659;28;20468;-73
2023/05/28 11:47:34;;;;;;;7.13;4.03;;;38.50;1.00;;;;;;4962321;28;20484;-74
2023/05/28 11:50:07;;;;;;;3.23;2.93;;;38.80;1.00;;;;;;4968295;28;20919;-73
2023/05/28 11:52:35;;;;;;;4.60;2.63;;;39.40;1.00;;;;;;4971540;28;20509;-73
2023/05/28 11:55:03;;;;;;;6.00;4.20;;;39.90;1.00;;;;;;4966916;28;20515;-73
2023/05/28 11:57:34;;;;;;;4.00;3.30;;;39.80;1.00;;;;;;4966555;28;21118;-74
2023/05/28 12:00:05;;;;;;;5.37;3.90;;;39.80;1.00;;;;;;4968186;28;21167;-75
2023/05/28 12:02:33;;;;;;;3.27;2.90;;;39.70;1.00;;;;;;4970332;28;20466;-73
2023/05/28 12:05:02;;;;;;;3.90;3.17;;;39.70;1.00;;;;;;4968887;28;20456;-75
2023/05/28 12:07:30;;;;;;;3.13;2.73;;;40.10;1.00;;;;;;4968613;28;20456;-75
2023/05/28 12:10:10;;;;;;;3.10;2.70;;;40.10;1.00;;;;;;4968650;28;20484;-73
2023/05/28 12:12:42;;;;;;;5.20;3.53;;;39.90;1.00;;;;;;4969109;28;20524;-73
2023/05/28 12:15:09;;;;;;;6.97;4.80;;;38.00;1.00;;;;;;4964713;28;20498;-73
2023/05/28 12:17:37;;;;;;;5.20;3.20;;;36.10;1.00;;;;;;4962235;28;20467;-74
2023/05/28 12:20:07;;;;;;;5.07;3.40;;;36.80;1.00;;;;;;4960231;28;20488;-74
2023/05/28 12:22:34;;;;;;;3.13;2.50;;;37.40;1.00;;;;;;4962208;28;20451;-74
2023/05/28 12:25:02;;;;;;;4.80;3.77;;;38.50;1.00;;;;;;4969088;28;20503;-74
2023/05/28 12:27:31;;;;;;;3.00;2.70;;;39.70;1.00;;;;;;4967389;28;20547;-73
2023/05/28 12:29:58;;;;;;;4.43;4.00;;;40.50;1.00;;;;;;4967565;28;20484;-75
2023/05/28 12:32:25;;;;;;;4.13;2.30;;;40.50;1.00;;;;;;4968385;28;20943;-73
2023/05/28 12:34:55;;;;;;;4.63;3.63;;;40.30;1.00;;;;;;4969411;28;20572;-74
2023/05/28 12:37:23;;;;;;;3.00;2.70;;;39.80;1.00;;;;;;4965983;28;20463;-75
2023/05/28 12:39:50;;;;;;;2.90;2.37;;;39.80;1.00;;;;;;4966330;28;20494;-74
2023/05/28 12:42:17;;;;;;;2.73;2.53;;;39.60;1.00;;;;;;4965333;28;20483;-73
2023/05/28 12:44:45;;;;;;;6.07;4.40;;;39.40;1.00;;;;;;4970053;28;20480;-74
2023/05/28 12:47:12;;;;;;;3.67;3.30;;;39.10;1.00;;;;;;4970527;28;20531;-75
2023/05/28 12:49:39;;;;;;;3.23;2.57;;;39.00;1.00;;;;;;4968567;28;20913;-73
2023/05/28 12:52:06;;;;;;;3.63;2.80;;;38.90;1.00;;;;;;4970128;28;20515;-72
2023/05/28 12:54:34;;;;;;;3.00;2.70;;;38.90;1.00;;;;;;4971365;28;20436;-74
2023/05/28 12:57:02;;;;;;;2.87;2.47;;;38.70;1.00;;;;;;4965836;28;20562;-74
2023/05/28 12:59:30;;;;;;;3.30;2.93;;;38.80;1.00;;;;;;4969556;28;20464;-75